createdAt,value
2023-06-01T00:00:01.212Z,27.86
2023-06-01T00:02:28.589Z,27.84
2023-06-01T00:04:55.593Z,27.84
2023-06-01T00:07:24.847Z,27.75
2023-06-01T00:09:52.157Z,27.75
2023-06-01T00:12:19.155Z,27.77
2023-06-01T00:14:46.260Z,27.78
2023-06-01T00:17:13.296Z,27.65
2023-06-01T00:19:40.241Z,27.59
2023-06-01T00:22:08.507Z,27.70
2023-06-01T00:24:36.049Z,27.50
2023-06-01T00:27:03.519Z,27.40
2023-06-01T00:29:31.130Z,27.40
2023-06-01T00:31:58.190Z,27.31
2023-06-01T00:34:25.347Z,27.45
2023-06-01T00:36:53.221Z,27.44
2023-06-01T00:39:20.208Z,27.42
2023-06-01T00:41:47.266Z,27.47
2023-06-01T00:44:14.301Z,27.34
2023-06-01T00:46:41.750Z,27.33
2023-06-01T00:49:08.890Z,27.34
2023-06-01T00:51:36.717Z,27.27
2023-06-01T00:54:04.002Z,27.37
2023-06-01T00:56:32.842Z,27.26
2023-06-01T00:59:01.024Z,27.29
2023-06-01T01:01:28.822Z,27.31
2023-06-01T01:03:59.230Z,27.27
2023-06-01T01:06:43.076Z,27.25
2023-06-01T01:09:57.916Z,27.51
2023-06-01T01:12:44.395Z,27.37
2023-06-01T01:15:41.593Z,27.20
2023-06-01T01:18:18.480Z,27.11
2023-06-01T01:20:53.415Z,27.04
2023-06-01T01:24:00.506Z,27.30
2023-06-01T01:26:43.403Z,27.19
2023-06-01T01:29:13.334Z,27.02
2023-06-01T01:31:41.964Z,26.97
2023-06-01T01:34:10.506Z,27.10
2023-06-01T01:36:37.908Z,26.98
2023-06-01T01:39:06.187Z,26.84
2023-06-01T01:41:33.307Z,26.99
2023-06-01T01:44:01.197Z,26.94
2023-06-01T01:46:37.969Z,26.98
2023-06-01T01:49:35.395Z,27.04
2023-06-01T01:52:19.308Z,27.08
2023-06-01T01:54:48.869Z,26.96
2023-06-01T01:57:17.826Z,26.81
2023-06-01T01:59:48.997Z,26.71
2023-06-01T02:02:16.381Z,26.61
2023-06-01T02:04:47.232Z,26.79
2023-06-01T02:07:14.740Z,26.60
2023-06-01T02:09:42.288Z,26.63
2023-06-01T02:12:12.111Z,26.46
2023-06-01T02:14:39.678Z,26.50
2023-06-01T02:17:08.417Z,26.58
2023-06-01T02:19:35.512Z,26.60
2023-06-01T02:22:02.944Z,26.51
2023-06-01T02:24:30.232Z,26.38
2023-06-01T02:26:57.563Z,26.50
2023-06-01T02:29:25.836Z,26.56
2023-06-01T02:31:53.720Z,26.39
2023-06-01T02:34:21.134Z,26.44
2023-06-01T02:36:49.476Z,26.34
2023-06-01T02:39:18.144Z,26.30
2023-06-01T02:41:45.561Z,26.33
2023-06-01T02:44:12.996Z,26.18
2023-06-01T02:46:39.988Z,26.15
2023-06-01T02:49:07.204Z,26.15
2023-06-01T02:51:34.994Z,26.24
2023-06-01T02:54:12.731Z,26.23
2023-06-01T02:56:39.849Z,26.08
2023-06-01T02:59:15.553Z,26.17
2023-06-01T03:01:48.573Z,26.14
2023-06-01T03:04:16.239Z,25.97
2023-06-01T03:06:44.466Z,26.01
2023-06-01T03:09:30.510Z,25.91
2023-06-01T03:12:07.445Z,25.89
2023-06-01T03:14:36.126Z,25.88
2023-06-01T03:17:03.212Z,25.89
2023-06-01T03:19:30.382Z,25.84
2023-06-01T03:22:00.590Z,25.71
2023-06-01T03:24:29.105Z,25.95
2023-06-01T03:26:59.696Z,25.93
2023-06-01T03:29:28.839Z,25.78
2023-06-01T03:31:55.947Z,25.86
2023-06-01T03:34:24.203Z,25.81
2023-06-01T03:36:51.202Z,25.84
2023-06-01T03:39:18.633Z,25.87
2023-06-01T03:41:46.608Z,25.82
2023-06-01T03:44:13.684Z,25.73
2023-06-01T03:46:41.787Z,25.67
2023-06-01T03:49:09.064Z,25.79
2023-06-01T03:51:37.158Z,25.78
2023-06-01T03:54:04.229Z,25.74
2023-06-01T03:56:31.415Z,25.59
2023-06-01T03:59:02.763Z,25.71
2023-06-01T04:01:30.761Z,25.64
2023-06-01T04:03:58.206Z,25.69
2023-06-01T04:06:26.036Z,25.57
2023-06-01T04:08:58.741Z,25.53
2023-06-01T04:11:27.525Z,25.34
2023-06-01T04:13:57.069Z,25.58
2023-06-01T04:16:24.252Z,25.24
2023-06-01T04:18:52.406Z,24.21
2023-06-01T04:21:22.992Z,24.80
2023-06-01T04:23:51.260Z,25.18
2023-06-01T04:26:20.025Z,25.33
2023-06-01T04:28:49.667Z,25.22
2023-06-01T04:31:20.584Z,25.46
2023-06-01T04:33:57.282Z,25.42
2023-06-01T04:36:25.500Z,25.48
2023-06-01T04:38:56.342Z,25.48
2023-06-01T04:41:24.079Z,25.45
2023-06-01T04:43:53.716Z,25.29
2023-06-01T04:46:24.972Z,25.50
2023-06-01T04:48:56.518Z,25.35
2023-06-01T04:51:24.624Z,25.41
2023-06-01T04:53:54.161Z,25.52
2023-06-01T04:56:27.715Z,25.14
2023-06-01T04:58:56.885Z,25.23
2023-06-01T05:01:30.417Z,25.22
2023-06-01T05:03:58.256Z,25.12
2023-06-01T05:06:29.082Z,25.20
2023-06-01T05:08:56.587Z,25.07
2023-06-01T05:11:24.412Z,25.19
2023-06-01T05:13:53.469Z,25.22
2023-06-01T05:16:21.749Z,24.83
2023-06-01T05:18:50.335Z,24.43
2023-06-01T05:21:17.468Z,24.73
2023-06-01T05:23:44.712Z,24.78
2023-06-01T05:26:12.811Z,24.94
2023-06-01T05:28:39.947Z,24.99
2023-06-01T05:31:10.309Z,24.91
2023-06-01T05:33:43.316Z,24.79
2023-06-01T05:36:11.284Z,25.12
2023-06-01T05:38:39.944Z,24.49
2023-06-01T05:41:07.416Z,24.34
2023-06-01T05:43:37.268Z,24.04
2023-06-01T05:46:05.907Z,23.39
2023-06-01T05:48:33.192Z,23.29
2023-06-01T05:51:00.829Z,23.89
2023-06-01T05:53:28.716Z,23.35
2023-06-01T05:55:55.906Z,24.22
2023-06-01T05:58:23.606Z,24.42
2023-06-01T06:00:50.757Z,24.78
2023-06-01T06:03:18.143Z,24.99
2023-06-01T06:05:46.097Z,25.01
2023-06-01T06:08:13.334Z,25.02
2023-06-01T06:10:40.479Z,23.88
2023-06-01T06:13:07.558Z,24.46
2023-06-01T06:15:34.645Z,24.78
2023-06-01T06:18:01.715Z,24.95
2023-06-01T06:20:28.849Z,25.04
2023-06-01T06:22:56.049Z,25.30
2023-06-01T06:25:23.369Z,25.30
2023-06-01T06:27:50.456Z,25.41
2023-06-01T06:30:17.972Z,25.46
2023-06-01T06:32:45.016Z,25.45
2023-06-01T06:35:14.137Z,25.42
2023-06-01T06:37:42.776Z,25.64
2023-06-01T06:40:10.489Z,25.68
2023-06-01T06:42:37.686Z,25.52
2023-06-01T06:45:07.982Z,25.67
2023-06-01T06:47:35.303Z,25.69
2023-06-01T06:50:02.832Z,25.69
2023-06-01T06:52:30.005Z,25.33
2023-06-01T06:54:57.062Z,25.87
2023-06-01T06:57:24.071Z,25.93
2023-06-01T06:59:50.999Z,25.91
2023-06-01T07:02:18.036Z,26.12
2023-06-01T07:04:45.319Z,26.06
2023-06-01T07:07:12.589Z,26.09
2023-06-01T07:09:40.779Z,25.84
2023-06-01T07:12:08.473Z,26.02
2023-06-01T07:14:36.073Z,26.24
2023-06-01T07:17:03.202Z,26.27
2023-06-01T07:19:36.352Z,26.25
2023-06-01T07:22:06.514Z,26.46
2023-06-01T07:24:33.650Z,25.89
2023-06-01T07:27:01.048Z,26.28
2023-06-01T07:29:29.081Z,26.26
2023-06-01T07:31:56.654Z,26.24
2023-06-01T07:34:24.369Z,26.30
2023-06-01T07:36:55.143Z,26.42
2023-06-01T07:39:26.988Z,26.36
2023-06-01T07:41:54.698Z,26.20
2023-06-01T07:44:22.268Z,26.31
2023-06-01T07:46:49.280Z,26.17
2023-06-01T07:49:16.519Z,26.38
2023-06-01T07:51:44.650Z,26.54
2023-06-01T07:54:12.062Z,26.33
2023-06-01T07:56:39.163Z,26.61
2023-06-01T07:59:06.843Z,26.65
2023-06-01T08:01:34.894Z,26.75
2023-06-01T08:04:02.952Z,26.54
2023-06-01T08:06:36.762Z,26.66
2023-06-01T08:09:05.063Z,26.72
2023-06-01T08:11:32.126Z,26.88
2023-06-01T08:14:01.115Z,26.64
2023-06-01T08:16:28.291Z,26.89
2023-06-01T08:18:56.907Z,26.78
2023-06-01T08:21:26.198Z,26.96
2023-06-01T08:23:57.453Z,26.56
2023-06-01T08:26:26.671Z,27.18
2023-06-01T08:28:54.096Z,26.96
2023-06-01T08:31:23.697Z,27.35
2023-06-01T08:33:51.996Z,27.39
2023-06-01T08:36:20.799Z,27.31
2023-06-01T08:38:47.826Z,27.52
2023-06-01T08:41:37.253Z,27.66
2023-06-01T08:44:06.912Z,27.32
2023-06-01T08:46:35.897Z,27.65
2023-06-01T08:49:03.386Z,27.93
2023-06-01T08:51:34.827Z,28.11
2023-06-01T08:54:06.312Z,27.99
2023-06-01T08:56:33.871Z,27.64
2023-06-01T08:59:01.739Z,27.59
2023-06-01T09:01:29.330Z,28.04
2023-06-01T09:03:56.621Z,28.03
2023-06-01T09:06:23.718Z,27.96
2023-06-01T09:08:51.379Z,27.06
2023-06-01T09:11:18.592Z,27.20
2023-06-01T09:13:45.708Z,27.74
2023-06-01T09:16:13.458Z,27.65
2023-06-01T09:18:56.387Z,29.06
2023-06-01T09:21:23.502Z,28.33
2023-06-01T09:23:50.620Z,29.00
2023-06-01T09:26:20.017Z,28.80
2023-06-01T09:28:57.783Z,28.86
2023-06-01T09:31:43.324Z,28.41
2023-06-01T09:34:12.467Z,28.98
2023-06-01T09:36:39.959Z,28.13
2023-06-01T09:39:12.971Z,28.92
2023-06-01T09:41:59.805Z,29.06
2023-06-01T09:44:35.969Z,29.19
2023-06-01T09:47:10.351Z,29.10
2023-06-01T09:49:45.820Z,29.83
2023-06-01T09:52:18.042Z,29.70
2023-06-01T09:54:55.731Z,27.52
2023-06-01T09:57:30.774Z,27.01
2023-06-01T09:59:58.476Z,27.76
2023-06-01T10:02:26.585Z,27.72
2023-06-01T10:04:59.952Z,28.08
2023-06-01T10:07:31.508Z,28.99
2023-06-01T10:10:01.331Z,29.09
2023-06-01T10:12:29.463Z,28.58
2023-06-01T10:15:00.102Z,28.48
2023-06-01T10:17:27.803Z,27.58
2023-06-01T10:19:57.036Z,27.56
2023-06-01T10:22:24.684Z,28.12
2023-06-01T10:24:57.232Z,29.30
2023-06-01T10:27:40.264Z,29.74
2023-06-01T10:30:10.553Z,29.65
2023-06-01T10:32:49.562Z,30.01
2023-06-01T10:35:34.555Z,30.34
2023-06-01T10:38:07.966Z,30.57
2023-06-01T10:40:35.988Z,30.48
2023-06-01T10:43:03.833Z,30.63
2023-06-01T10:45:41.857Z,30.68
2023-06-01T10:48:13.642Z,31.52
2023-06-01T10:50:43.180Z,31.78
2023-06-01T10:53:29.590Z,31.96
2023-06-01T10:56:27.790Z,31.31
2023-06-01T10:59:18.318Z,32.27
2023-06-01T11:01:48.270Z,33.39
2023-06-01T11:04:16.204Z,34.12
2023-06-01T11:06:45.011Z,34.19
2023-06-01T11:09:14.086Z,32.98
2023-06-01T11:11:51.966Z,31.74
2023-06-01T11:14:25.198Z,29.82
2023-06-01T11:16:54.197Z,31.11
2023-06-01T11:19:27.172Z,33.68
2023-06-01T11:22:06.794Z,34.11
2023-06-01T11:24:37.408Z,34.03
2023-06-01T11:27:11.163Z,35.32
2023-06-01T11:29:38.607Z,34.51
2023-06-01T11:32:07.526Z,34.65
2023-06-01T11:34:42.059Z,35.11
2023-06-01T11:37:18.962Z,34.34
2023-06-01T11:39:48.282Z,34.34
2023-06-01T11:42:18.330Z,35.13
2023-06-01T11:44:55.641Z,34.46
2023-06-01T11:47:22.908Z,34.89
2023-06-01T11:49:53.117Z,35.64
2023-06-01T11:52:21.260Z,35.94
2023-06-01T11:54:49.499Z,36.82
2023-06-01T11:57:16.800Z,36.94
2023-06-01T11:59:49.071Z,34.83
2023-06-01T12:02:27.862Z,35.06
2023-06-01T12:05:02.994Z,35.52
2023-06-01T12:07:30.622Z,36.17
2023-06-01T12:09:59.658Z,36.33
2023-06-01T12:12:26.960Z,35.67
2023-06-01T12:14:54.244Z,35.42
2023-06-01T12:17:21.741Z,34.40
2023-06-01T12:19:49.992Z,33.47
2023-06-01T12:22:18.002Z,32.75
2023-06-01T12:24:45.970Z,35.07
2023-06-01T12:27:20.558Z,36.91
2023-06-01T12:29:48.929Z,36.90
2023-06-01T12:32:18.948Z,36.42
2023-06-01T12:35:05.205Z,38.05
2023-06-01T12:37:32.149Z,37.83
2023-06-01T12:40:00.966Z,37.48
2023-06-01T12:42:41.977Z,38.15
2023-06-01T12:45:09.610Z,38.38
2023-06-01T12:47:42.982Z,35.73
2023-06-01T12:50:13.766Z,35.11
2023-06-01T12:52:43.333Z,35.16
2023-06-01T12:55:11.058Z,35.03
2023-06-01T12:57:42.213Z,35.41
2023-06-01T13:00:10.166Z,33.78
2023-06-01T13:02:37.645Z,35.55
2023-06-01T13:05:07.154Z,36.38
2023-06-01T13:07:34.735Z,37.03
2023-06-01T13:10:01.878Z,38.47
2023-06-01T13:12:29.326Z,38.25
2023-06-01T13:14:58.001Z,37.50
2023-06-01T13:17:25.101Z,35.42
2023-06-01T13:19:53.711Z,36.20
2023-06-01T13:22:20.730Z,36.26
2023-06-01T13:25:03.541Z,36.03
2023-06-01T13:27:33.321Z,35.70
2023-06-01T13:30:00.323Z,34.86
2023-06-01T13:32:27.350Z,36.24
2023-06-01T13:34:55.193Z,36.96
2023-06-01T13:37:24.214Z,37.33
2023-06-01T13:39:51.656Z,36.72
2023-06-01T13:42:20.368Z,37.05
2023-06-01T13:44:48.936Z,36.86
2023-06-01T13:47:16.842Z,36.72
2023-06-01T13:49:45.702Z,34.09
2023-06-01T13:52:13.274Z,36.34
2023-06-01T13:54:40.480Z,35.46
2023-06-01T13:57:08.645Z,35.67
2023-06-01T13:59:37.063Z,34.48
2023-06-01T14:02:05.451Z,35.23
2023-06-01T14:04:32.952Z,34.49
2023-06-01T14:06:59.954Z,34.59
2023-06-01T14:09:27.195Z,34.88
2023-06-01T14:11:54.195Z,34.68
2023-06-01T14:14:21.227Z,35.31
2023-06-01T14:16:48.232Z,34.80
2023-06-01T14:19:15.352Z,35.24
2023-06-01T14:21:42.699Z,34.96
2023-06-01T14:24:10.002Z,34.88
2023-06-01T14:26:37.043Z,33.81
2023-06-01T14:29:04.268Z,35.30
2023-06-01T14:31:31.855Z,34.90
2023-06-01T14:33:59.190Z,35.05
2023-06-01T14:36:34.420Z,35.48
2023-06-01T14:39:12.784Z,35.71
2023-06-01T14:41:43.365Z,35.08
2023-06-01T14:44:12.136Z,35.95
2023-06-01T14:46:39.268Z,35.11
2023-06-01T14:49:06.366Z,35.31
2023-06-01T14:51:34.089Z,35.19
2023-06-01T14:54:01.114Z,34.39
2023-06-01T14:56:28.217Z,34.28
2023-06-01T14:58:55.522Z,33.56
2023-06-01T15:01:24.990Z,34.20
2023-06-01T15:03:52.279Z,34.43
2023-06-01T15:06:19.533Z,33.53
2023-06-01T15:08:46.558Z,34.19
2023-06-01T15:11:15.412Z,33.37
2023-06-01T15:13:43.544Z,33.97
2023-06-01T15:16:11.045Z,34.04
2023-06-01T15:18:38.242Z,34.08
2023-06-01T15:21:05.817Z,34.69
2023-06-01T15:23:33.015Z,34.40
2023-06-01T15:26:00.123Z,34.28
2023-06-01T15:28:27.136Z,34.23
2023-06-01T15:30:54.350Z,35.25
2023-06-01T15:33:22.197Z,34.99
2023-06-01T15:35:49.323Z,34.56
2023-06-01T15:38:16.360Z,35.09
2023-06-01T15:40:43.716Z,34.00
2023-06-01T15:43:10.786Z,35.04
2023-06-01T15:45:37.933Z,35.06
2023-06-01T15:48:04.985Z,34.98
2023-06-01T15:50:31.952Z,35.05
2023-06-01T15:52:58.971Z,35.31
2023-06-01T15:55:26.072Z,34.45
2023-06-01T15:57:53.140Z,34.78
2023-06-01T16:00:20.695Z,34.45
2023-06-01T16:02:48.135Z,35.18
2023-06-01T16:05:15.638Z,34.55
2023-06-01T16:07:42.934Z,34.03
2023-06-01T16:10:10.465Z,34.21
2023-06-01T16:12:37.460Z,34.72
2023-06-01T16:15:04.932Z,34.76
2023-06-01T16:17:32.211Z,33.83
2023-06-01T16:20:01.092Z,34.45
2023-06-01T16:22:28.131Z,34.36
2023-06-01T16:24:55.106Z,33.62
2023-06-01T16:27:22.353Z,34.25
2023-06-01T16:29:49.520Z,34.01
2023-06-01T16:32:17.008Z,33.89
2023-06-01T16:34:44.241Z,34.14
2023-06-01T16:37:11.291Z,33.55
2023-06-01T16:39:38.330Z,33.74
2023-06-01T16:42:06.222Z,34.21
2023-06-01T16:44:33.227Z,33.94
2023-06-01T16:47:00.226Z,33.62
2023-06-01T16:49:27.209Z,33.55
2023-06-01T16:51:54.226Z,34.03
2023-06-01T16:54:21.308Z,34.08
2023-06-01T16:56:48.326Z,33.41
2023-06-01T16:59:15.416Z,33.75
2023-06-01T17:01:43.068Z,34.03
2023-06-01T17:04:10.322Z,34.31
2023-06-01T17:06:37.582Z,34.05
2023-06-01T17:09:04.760Z,33.86
2023-06-01T17:11:31.798Z,34.23
2023-06-01T17:13:58.861Z,34.80
2023-06-01T17:16:26.092Z,34.43
2023-06-01T17:18:53.293Z,34.52
2023-06-01T17:21:20.524Z,34.40
2023-06-01T17:23:47.512Z,34.33
2023-06-01T17:26:14.544Z,34.85
2023-06-01T17:28:42.257Z,34.51
2023-06-01T17:31:09.439Z,33.97
2023-06-01T17:33:36.649Z,33.98
2023-06-01T17:36:04.060Z,33.93
2023-06-01T17:38:31.423Z,34.17
2023-06-01T17:40:58.883Z,34.37
2023-06-01T17:43:25.901Z,34.22
2023-06-01T17:45:53.079Z,34.43
2023-06-01T17:48:20.269Z,33.62
2023-06-01T17:50:47.559Z,33.95
2023-06-01T17:53:39.499Z,33.97
2023-06-01T17:56:02.933Z,33.90
2023-06-01T17:58:30.480Z,34.34
2023-06-01T18:00:57.599Z,34.12
2023-06-01T18:03:24.703Z,34.27
2023-06-01T18:05:51.866Z,34.31
2023-06-01T18:08:18.882Z,33.94
2023-06-01T18:10:46.300Z,34.34
2023-06-01T18:13:13.393Z,33.79
2023-06-01T18:15:40.606Z,34.00
2023-06-01T18:18:07.753Z,34.36
2023-06-01T18:20:34.919Z,34.71
2023-06-01T18:23:01.994Z,34.48
2023-06-01T18:25:29.296Z,34.06
2023-06-01T18:27:56.453Z,34.10
2023-06-01T18:30:23.970Z,34.61
2023-06-01T18:32:51.099Z,34.44
2023-06-01T18:35:18.272Z,34.44
2023-06-01T18:37:45.588Z,34.75
2023-06-01T18:40:12.975Z,34.85
2023-06-01T18:42:40.098Z,34.80
2023-06-01T18:45:08.134Z,34.80
2023-06-01T18:47:35.194Z,34.49
2023-06-01T18:50:02.440Z,34.43
2023-06-01T18:52:29.434Z,34.49
2023-06-01T18:54:57.412Z,34.46
2023-06-01T18:57:25.052Z,34.42
2023-06-01T18:59:52.544Z,34.25
2023-06-01T19:02:25.435Z,34.41
2023-06-01T19:05:06.496Z,34.26
2023-06-01T19:07:37.995Z,34.34
2023-06-01T19:10:10.434Z,34.31
2023-06-01T19:12:37.902Z,34.01
2023-06-01T19:15:13.357Z,34.16
2023-06-01T19:17:41.251Z,33.94
2023-06-01T19:20:51.625Z,34.03
2023-06-01T19:23:18.613Z,33.65
2023-06-01T19:25:45.792Z,33.48
2023-06-01T19:28:12.876Z,33.48
2023-06-01T19:30:39.939Z,33.34
2023-06-01T19:33:07.231Z,33.18
2023-06-01T19:35:34.324Z,33.18
2023-06-01T19:38:01.621Z,33.09
2023-06-01T19:40:29.921Z,33.19
2023-06-01T19:42:58.534Z,33.23
2023-06-01T19:45:25.591Z,32.97
2023-06-01T19:47:53.962Z,33.03
2023-06-01T19:50:44.822Z,33.10
2023-06-01T19:53:15.540Z,33.02
2023-06-01T19:55:44.194Z,32.77
2023-06-01T19:58:14.043Z,32.71
2023-06-01T20:00:41.534Z,32.59
2023-06-01T20:03:16.451Z,32.88
2023-06-01T20:05:43.526Z,32.70
2023-06-01T20:08:14.949Z,32.92
2023-06-01T20:10:42.222Z,32.78
2023-06-01T20:13:09.319Z,32.82
2023-06-01T20:15:41.852Z,32.55
2023-06-01T20:18:09.314Z,32.32
2023-06-01T20:20:39.201Z,32.90
2023-06-01T20:23:11.454Z,32.91
2023-06-01T20:25:43.903Z,32.59
2023-06-01T20:28:15.560Z,32.70
2023-06-01T20:31:04.909Z,32.77
2023-06-01T20:33:33.584Z,32.33
2023-06-01T20:36:09.395Z,32.60
2023-06-01T20:38:42.664Z,32.96
2023-06-01T20:41:22.947Z,32.84
2023-06-01T20:43:52.711Z,32.65
2023-06-01T20:46:22.607Z,32.49
2023-06-01T20:48:57.294Z,32.43
2023-06-01T20:51:33.736Z,32.37
2023-06-01T20:54:13.106Z,32.41
2023-06-01T20:56:49.176Z,32.20
2023-06-01T20:59:27.018Z,32.34
2023-06-01T21:01:57.475Z,32.08
2023-06-01T21:04:34.984Z,32.04
2023-06-01T21:07:03.735Z,32.06
2023-06-01T21:09:30.780Z,31.94
2023-06-01T21:12:00.544Z,32.12
2023-06-01T21:14:27.774Z,31.94
2023-06-01T21:16:55.120Z,31.89
2023-06-01T21:19:22.534Z,31.81
2023-06-01T21:21:49.607Z,31.76
2023-06-01T21:24:16.866Z,31.76
2023-06-01T21:26:47.364Z,31.72
2023-06-01T21:29:14.519Z,31.48
2023-06-01T21:31:41.761Z,31.52
2023-06-01T21:34:08.870Z,31.58
2023-06-01T21:36:37.645Z,31.44
2023-06-01T21:39:04.853Z,31.59
2023-06-01T21:41:32.050Z,31.49
2023-06-01T21:43:59.276Z,31.47
2023-06-01T21:46:26.309Z,31.40
2023-06-01T21:48:53.918Z,31.28
2023-06-01T21:51:21.052Z,31.35
2023-06-01T21:53:48.443Z,30.99
2023-06-01T21:56:15.913Z,31.17
2023-06-01T21:58:43.433Z,31.32
2023-06-01T22:01:10.705Z,31.13
2023-06-01T22:03:37.963Z,31.19
2023-06-01T22:06:06.912Z,31.16
2023-06-01T22:08:34.258Z,31.15
2023-06-01T22:11:01.429Z,31.01
2023-06-01T22:13:28.569Z,31.00
2023-06-01T22:15:55.851Z,30.90
2023-06-01T22:18:23.121Z,30.87
2023-06-01T22:20:50.253Z,30.99
2023-06-01T22:23:17.400Z,30.88
2023-06-01T22:25:44.521Z,30.94
2023-06-01T22:28:11.984Z,30.88
2023-06-01T22:30:40.241Z,30.69
2023-06-01T22:33:07.336Z,30.76
2023-06-01T22:35:34.409Z,30.84
2023-06-01T22:38:01.464Z,30.78
2023-06-01T22:40:28.557Z,30.84
2023-06-01T22:42:55.620Z,30.56
2023-06-01T22:45:24.785Z,30.63
2023-06-01T22:47:52.519Z,30.65
2023-06-01T22:50:20.319Z,30.58
2023-06-01T22:52:49.464Z,30.58
2023-06-01T22:55:17.101Z,30.64
2023-06-01T22:57:44.356Z,30.44
2023-06-01T23:00:12.683Z,30.57
2023-06-01T23:02:40.084Z,30.39
2023-06-01T23:05:07.740Z,30.42
2023-06-01T23:07:37.366Z,30.41
2023-06-01T23:10:05.668Z,30.34
2023-06-01T23:12:36.127Z,30.15
2023-06-01T23:15:04.481Z,30.33
2023-06-01T23:17:33.998Z,30.28
2023-06-01T23:20:05.563Z,30.09
2023-06-01T23:22:37.741Z,30.82
2023-06-01T23:25:05.988Z,30.06
2023-06-01T23:27:33.208Z,30.03
2023-06-01T23:30:00.563Z,30.05
2023-06-01T23:32:27.696Z,30.09
2023-06-01T23:34:54.684Z,30.08
2023-06-01T23:37:22.481Z,29.89
2023-06-01T23:39:49.520Z,29.95
2023-06-01T23:42:16.571Z,29.92
2023-06-01T23:44:43.565Z,29.95
2023-06-01T23:47:10.553Z,29.84
2023-06-01T23:49:38.072Z,29.90
2023-06-01T23:52:05.595Z,29.85
2023-06-01T23:54:32.614Z,29.81
2023-06-01T23:56:59.675Z,29.81
2023-06-01T23:59:26.714Z,29.82
